Terminal Aerodrome Forecast
Issued by NWS Boston, MA

Current Version | Previous Version | Text Only | Print | Product List | Glossary On
Versions: 1 2 3 4 5 6 7 8 9 10 11 12 13 14 15 16 17 18 19 20 21 22 23 24 25 26 27
000
FTUS41 KBOX 290533
TAFORH
TAF
KORH 290533Z 2906/3006 31007KT P6SM SKC
     FM291400 00000KT P6SM SKC
     FM292300 19005KT P6SM BKN110=

USA.gov is the U.S. government's official web portal to all federal, state and local government web resources and services.